Time,TemperatureF,DewpointF,PressureIn,WindDirection,WindDirectionDegrees,WindSpeedMPH,WindSpeedGustMPH,Humidity,HourlyPrecipIn,Conditions,Clouds,dailyrainin,SoftwareType,DateUTC
2013-03-15 01:21:00,31.0,13.0,29.84,WNW,300,17.0,23.0,46,-99.99,,,-99.99,,2013-03-15 05:21:00,
2013-03-15 01:31:00,31.0,13.0,29.84,WNW,300,17.0,23.0,46,-99.99,,,-99.99,,2013-03-15 05:31:00,
2013-03-15 01:41:00,31.0,13.0,29.83,WNW,290,21.0,29.0,46,-99.99,,,-99.99,,2013-03-15 05:41:00,
2013-03-15 01:52:00,31.0,12.0,29.84,WNW,300,18.0,24.0,45,-99.99,,,-99.99,,2013-03-15 05:52:00,
2013-03-15 02:01:00,31.0,12.0,29.84,WNW,300,18.0,24.0,45,-99.99,,,-99.99,,2013-03-15 06:01:00,
2013-03-15 02:11:00,31.0,13.0,29.84,WNW,300,17.0,23.0,46,-99.99,,,-99.99,,2013-03-15 06:11:00,
2013-03-15 02:21:00,31.0,13.0,29.84,WNW,300,17.0,23.0,46,-99.99,,,-99.99,,2013-03-15 06:21:00,
2013-03-15 02:31:00,31.0,12.0,29.84,WNW,300,20.0,25.0,45,-99.99,,,-99.99,,2013-03-15 06:31:00,
2013-03-15 02:41:00,31.0,12.0,29.84,WNW,300,23.0,30.0,44,-99.99,,,-99.99,,2013-03-15 06:41:00,
2013-03-15 02:52:00,31.0,12.0,29.83,WNW,300,25.0,32.0,45,-99.99,,,-99.99,,2013-03-15 06:52:00,
2013-03-15 03:01:00,31.0,12.0,29.83,WNW,300,25.0,32.0,45,-99.99,,,-99.99,,2013-03-15 07:01:00,
2013-03-15 03:21:00,30.0,12.0,29.84,NW,310,24.0,30.0,45,-99.99,,,-99.99,,2013-03-15 07:21:00,
2013-03-15 03:31:00,30.0,12.0,29.83,WNW,300,24.0,33.0,45,-99.99,,,-99.99,,2013-03-15 07:31:00,
2013-03-15 03:42:00,30.0,12.0,29.83,WNW,300,24.0,33.0,45,-99.99,,,-99.99,,2013-03-15 07:42:00,
2013-03-15 03:51:00,30.0,12.0,29.84,WNW,300,20.0,28.0,46,-99.99,,,-99.99,,2013-03-15 07:51:00,
2013-03-15 04:01:00,30.0,12.0,29.84,WNW,300,20.0,28.0,46,-99.99,,,-99.99,,2013-03-15 08:01:00,
2013-03-15 04:11:00,30.0,12.0,29.83,WNW,300,23.0,29.0,46,-99.99,,,-99.99,,2013-03-15 08:11:00,
2013-03-15 04:22:00,30.0,12.0,29.82,NW,310,28.0,36.0,46,-99.99,,,-99.99,,2013-03-15 08:22:00,
2013-03-15 04:31:00,30.0,12.0,29.83,NW,310,25.0,31.0,46,-99.99,,,-99.99,,2013-03-15 08:31:00,
2013-03-15 04:41:00,30.0,12.0,29.83,NW,310,25.0,31.0,46,-99.99,,,-99.99,,2013-03-15 08:41:00,
2013-03-15 04:52:00,30.0,11.0,29.83,NW,310,24.0,32.0,45,-99.99,,,-99.99,,2013-03-15 08:52:00,
2013-03-15 05:01:00,30.0,11.0,29.83,NW,310,24.0,32.0,45,-99.99,,,-99.99,,2013-03-15 09:01:00,
2013-03-15 05:11:00,30.0,12.0,29.84,NW,310,20.0,24.0,46,-99.99,,,-99.99,,2013-03-15 09:11:00,
2013-03-15 05:32:00,29.0,11.0,29.85,WNW,300,20.0,28.0,46,-99.99,,,-99.99,,2013-03-15 09:32:00,
2013-03-15 05:42:00,29.0,12.0,29.85,WNW,300,20.0,25.0,48,-99.99,,,-99.99,,2013-03-15 09:42:00,
2013-03-15 05:52:00,29.0,11.0,29.85,NW,310,20.0,26.0,47,-99.99,,,-99.99,,2013-03-15 09:52:00,
2013-03-15 06:02:00,29.0,11.0,29.85,NW,310,20.0,26.0,47,-99.99,,,-99.99,,2013-03-15 10:02:00,
2013-03-15 06:12:00,29.0,10.0,29.85,WNW,300,21.0,26.0,45,-99.99,,,-99.99,,2013-03-15 10:12:00,
2013-03-15 06:22:00,29.0,11.0,29.86,NW,310,20.0,24.0,46,-99.99,,,-99.99,,2013-03-15 10:22:00,
2013-03-15 06:32:00,28.0,11.0,29.86,WNW,300,17.0,23.0,47,-99.99,,,-99.99,,2013-03-15 10:32:00,
2013-03-15 06:41:00,28.0,11.0,29.86,WNW,300,17.0,23.0,47,-99.99,,,-99.99,,2013-03-15 10:41:00,
2013-03-15 06:51:00,28.0,9.0,29.87,WNW,300,22.0,28.0,45,-99.99,,,-99.99,,2013-03-15 10:51:00,
2013-03-15 07:02:00,28.0,9.0,29.87,WNW,300,22.0,28.0,45,-99.99,,,-99.99,,2013-03-15 11:02:00,
2013-03-15 07:11:00,28.0,10.0,29.88,WNW,300,15.0,21.0,46,-99.99,,,-99.99,,2013-03-15 11:11:00,
2013-03-15 07:21:00,28.0,10.0,29.88,WNW,300,15.0,21.0,46,-99.99,,,-99.99,,2013-03-15 11:21:00,
2013-03-15 07:31:00,28.0,10.0,29.88,WNW,300,16.0,23.0,46,-99.99,,,-99.99,,2013-03-15 11:31:00,
2013-03-15 07:41:00,28.0,10.0,29.88,WNW,300,16.0,23.0,46,-99.99,,,-99.99,,2013-03-15 11:41:00,
2013-03-15 07:51:00,28.0,9.0,29.88,WNW,300,16.0,22.0,45,-99.99,,,-99.99,,2013-03-15 11:51:00,
2013-03-15 08:01:00,28.0,9.0,29.88,WNW,300,16.0,22.0,45,-99.99,,,-99.99,,2013-03-15 12:01:00,
2013-03-15 08:11:00,28.0,10.0,29.88,WNW,290,14.0,18.0,46,-99.99,,,-99.99,,2013-03-15 12:11:00,
2013-03-15 08:21:00,28.0,9.0,29.88,WNW,290,17.0,22.0,44,-99.99,,,-99.99,,2013-03-15 12:21:00,
2013-03-15 08:31:00,28.0,8.0,29.88,WNW,300,16.0,25.0,42,-99.99,,,-99.99,,2013-03-15 12:31:00,
2013-03-15 08:41:00,28.0,8.0,29.88,WNW,300,16.0,25.0,42,-99.99,,,-99.99,,2013-03-15 12:41:00,
2013-03-15 08:51:00,28.0,9.0,29.88,WNW,300,22.0,26.0,43,-99.99,,,-99.99,,2013-03-15 12:51:00,
2013-03-15 09:01:00,28.0,9.0,29.88,WNW,300,22.0,26.0,43,-99.99,,,-99.99,,2013-03-15 13:01:00,
2013-03-15 09:21:00,28.0,9.0,29.88,WNW,300,18.0,22.0,43,-99.99,,,-99.99,,2013-03-15 13:21:00,
2013-03-15 09:31:00,28.0,9.0,29.88,WNW,300,18.0,22.0,43,-99.99,,,-99.99,,2013-03-15 13:31:00,
2013-03-15 09:41:00,28.0,9.0,29.88,WNW,300,16.0,21.0,44,-99.99,,,-99.99,,2013-03-15 13:41:00,
2013-03-15 09:52:00,29.0,9.0,29.88,WNW,290,15.0,22.0,43,-99.99,,,-99.99,,2013-03-15 13:52:00,
2013-03-15 10:01:00,29.0,9.0,29.88,WNW,290,15.0,22.0,43,-99.99,,,-99.99,,2013-03-15 14:01:00,
2013-03-15 10:11:00,29.0,10.0,29.88,WNW,300,16.0,23.0,43,-99.99,,,-99.99,,2013-03-15 14:11:00,
2013-03-15 10:32:00,29.0,8.0,29.88,NW,310,18.0,24.0,40,-99.99,,,-99.99,,2013-03-15 14:32:00,
2013-03-15 10:41:00,30.0,8.0,29.87,WNW,300,20.0,26.0,39,-99.99,,,-99.99,,2013-03-15 14:41:00,
2013-03-15 10:51:00,30.0,8.0,29.88,WNW,290,15.0,21.0,39,-99.99,,,-99.99,,2013-03-15 14:51:00,
2013-03-15 11:01:00,30.0,8.0,29.88,WNW,290,15.0,21.0,39,-99.99,,,-99.99,,2013-03-15 15:01:00,
2013-03-15 11:11:00,31.0,9.0,29.87,WNW,290,14.0,21.0,40,-99.99,,,-99.99,,2013-03-15 15:11:00,
2013-03-15 11:21:00,31.0,9.0,29.86,West,270,14.0,18.0,39,-99.99,,,-99.99,,2013-03-15 15:21:00,
2013-03-15 11:32:00,31.0,11.0,29.85,West,260,16.0,21.0,41,-99.99,,,-99.99,,2013-03-15 15:32:00,
2013-03-15 11:42:00,31.0,11.0,29.85,West,260,16.0,21.0,41,-99.99,,,-99.99,,2013-03-15 15:42:00,
2013-03-15 11:52:00,32.0,15.0,29.85,WSW,250,20.0,24.0,48,-99.99,,,-99.99,,2013-03-15 15:52:00,
2013-03-15 12:02:00,32.0,15.0,29.85,WSW,250,20.0,24.0,48,-99.99,,,-99.99,,2013-03-15 16:02:00,
2013-03-15 12:12:00,32.0,14.0,29.83,West,260,23.0,26.0,48,-99.99,,,-99.99,,2013-03-15 16:12:00,
2013-03-15 12:22:00,32.0,16.0,29.82,WSW,250,22.0,25.0,51,-99.99,,,-99.99,,2013-03-15 16:22:00,
2013-03-15 12:32:00,32.0,16.0,29.82,WSW,250,22.0,25.0,51,-99.99,,,-99.99,,2013-03-15 16:32:00,
2013-03-15 12:41:00,32.0,16.0,29.81,WSW,250,22.0,25.0,50,-99.99,,,-99.99,,2013-03-15 16:41:00,
2013-03-15 12:52:00,33.0,17.0,29.81,WSW,250,21.0,24.0,52,-99.99,,,-99.99,,2013-03-15 16:52:00,
2013-03-15 13:01:00,33.0,17.0,29.81,WSW,250,21.0,24.0,52,-99.99,,,-99.99,,2013-03-15 17:01:00,
2013-03-15 13:21:00,33.0,19.0,29.79,WSW,250,23.0,25.0,55,-99.99,,,-99.99,,2013-03-15 17:21:00,
2013-03-15 13:32:00,33.0,20.0,29.78,WSW,250,24.0,28.0,57,-99.99,,,-99.99,,2013-03-15 17:32:00,
2013-03-15 13:41:00,33.0,20.0,29.78,WSW,250,24.0,28.0,57,-99.99,,,-99.99,,2013-03-15 17:41:00,
2013-03-15 13:52:00,33.0,20.0,29.77,WSW,250,23.0,26.0,58,-99.99,,,-99.99,,2013-03-15 17:52:00,
2013-03-15 14:01:00,33.0,20.0,29.77,WSW,250,23.0,26.0,58,-99.99,,,-99.99,,2013-03-15 18:01:00,
2013-03-15 14:11:00,34.0,20.0,29.76,WSW,240,20.0,23.0,56,-99.99,,,-99.99,,2013-03-15 18:11:00,
2013-03-15 14:21:00,34.0,20.0,29.75,WSW,240,23.0,25.0,56,-99.99,,,-99.99,,2013-03-15 18:21:00,
2013-03-15 14:31:00,34.0,20.0,29.75,WSW,240,23.0,25.0,56,-99.99,,,-99.99,,2013-03-15 18:31:00,
2013-03-15 14:41:00,34.0,19.0,29.73,WSW,250,25.0,30.0,53,-99.99,,,-99.99,,2013-03-15 18:41:00,
2013-03-15 14:52:00,34.0,20.0,29.73,WSW,250,26.0,29.0,55,-99.99,,,-99.99,,2013-03-15 18:52:00,
2013-03-15 15:01:00,34.0,20.0,29.73,WSW,250,26.0,29.0,55,-99.99,,,-99.99,,2013-03-15 19:01:00,
2013-03-15 15:11:00,35.0,18.0,29.72,WSW,250,22.0,25.0,49,-99.99,,,-99.99,,2013-03-15 19:11:00,
2013-03-15 15:31:00,37.0,19.0,29.70,West,260,22.0,25.0,48,-99.99,,,-99.99,,2013-03-15 19:31:00,
2013-03-15 15:41:00,37.0,19.0,29.70,West,260,22.0,25.0,48,-99.99,,,-99.99,,2013-03-15 19:41:00,
2013-03-15 15:52:00,38.0,22.0,29.68,West,260,30.0,34.0,52,-99.99,,,-99.99,,2013-03-15 19:52:00,
2013-03-15 16:02:00,38.0,22.0,29.68,West,260,30.0,34.0,52,-99.99,,,-99.99,,2013-03-15 20:02:00,
2013-03-15 16:21:00,39.0,23.0,29.65,WSW,250,37.0,43.0,52,-99.99,,,-99.99,,2013-03-15 20:21:00,
2013-03-15 16:31:00,39.0,23.0,29.65,WSW,250,37.0,43.0,52,-99.99,,,-99.99,,2013-03-15 20:31:00,
2013-03-15 16:41:00,39.0,24.0,29.66,West,260,30.0,34.0,55,-99.99,,,-99.99,,2013-03-15 20:41:00,
2013-03-15 16:51:00,39.0,25.0,29.66,West,260,32.0,37.0,56,-99.99,,,-99.99,,2013-03-15 20:51:00,
2013-03-15 17:01:00,39.0,25.0,29.66,West,260,32.0,37.0,56,-99.99,,,-99.99,,2013-03-15 21:01:00,
2013-03-15 17:21:00,39.0,25.0,29.64,West,260,33.0,39.0,57,-99.99,,,-99.99,,2013-03-15 21:21:00,
2013-03-15 17:32:00,39.0,25.0,29.64,West,260,33.0,39.0,57,-99.99,,,-99.99,,2013-03-15 21:32:00,
2013-03-15 17:42:00,39.0,27.0,29.64,West,260,32.0,39.0,60,-99.99,,,-99.99,,2013-03-15 21:42:00,
2013-03-15 17:52:00,39.0,27.0,29.65,West,260,28.0,32.0,62,-99.99,,,-99.99,,2013-03-15 21:52:00,
2013-03-15 18:02:00,39.0,27.0,29.65,West,260,28.0,32.0,62,-99.99,,,-99.99,,2013-03-15 22:02:00,
2013-03-15 18:12:00,39.0,27.0,29.64,West,260,33.0,39.0,59,-99.99,,,-99.99,,2013-03-15 22:12:00,
2013-03-15 18:22:00,39.0,28.0,29.64,West,260,31.0,38.0,62,-99.99,,,-99.99,,2013-03-15 22:22:00,
2013-03-15 18:32:00,40.0,26.0,29.66,West,280,25.0,30.0,58,-99.99,,,-99.99,,2013-03-15 22:32:00,
2013-03-15 18:41:00,40.0,26.0,29.66,West,280,25.0,30.0,58,-99.99,,,-99.99,,2013-03-15 22:41:00,
2013-03-15 18:52:00,40.0,26.0,29.67,West,270,21.0,28.0,56,-99.99,,,-99.99,,2013-03-15 22:52:00,
2013-03-15 19:11:00,40.0,26.0,29.67,West,270,20.0,26.0,55,-99.99,,,-99.99,,2013-03-15 23:11:00,
2013-03-15 19:21:00,40.0,26.0,29.67,West,260,21.0,24.0,56,-99.99,,,-99.99,,2013-03-15 23:21:00,
2013-03-15 19:31:00,41.0,27.0,29.66,West,260,24.0,29.0,57,-99.99,,,-99.99,,2013-03-15 23:31:00,
2013-03-15 19:41:00,41.0,27.0,29.66,West,260,24.0,29.0,57,-99.99,,,-99.99,,2013-03-15 23:41:00,
2013-03-15 19:52:00,40.0,29.0,29.66,West,260,23.0,26.0,63,-99.99,,,-99.99,,2013-03-15 23:52:00,
2013-03-15 20:02:00,40.0,29.0,29.66,West,260,23.0,26.0,63,-99.99,,,-99.99,,2013-03-16 00:02:00,
2013-03-15 20:11:00,40.0,29.0,29.67,West,260,23.0,28.0,62,-99.99,,,-99.99,,2013-03-16 00:11:00,
2013-03-15 20:22:00,40.0,29.0,29.67,West,260,23.0,28.0,62,-99.99,,,-99.99,,2013-03-16 00:22:00,
2013-03-15 20:31:00,40.0,29.0,29.67,West,260,23.0,28.0,62,-99.99,,,-99.99,,2013-03-16 00:31:00,
2013-03-15 20:42:00,40.0,29.0,29.67,West,260,23.0,28.0,62,-99.99,,,-99.99,,2013-03-16 00:42:00,